Esquina, Argentina
Current Conditions -  °F | °C
As of 6:00 PM on Tuesday 21 Oct 2014 (Local Time) from SUSO Reporting Station
Clear Clear  
Wind Chill: 81°   Ceiling: Unl
Heat Index: 81°   Visibility: 6mi
Dew Point: 55°   Wind: 7mph
Humidity: 42%   Direction: 60°ENE
Pressure: 30.03"   Gusts: NA
Location:  30.02°S, 59.53°W
Report Text: SUSO 212100Z 06006KT CAVOK 27/13 Q1017
Loading
Personal Weather Stations






























Interactive Weather Map
Tropical Storm Tracking
New forecast layout! Learn more

10-Day Weather Forecast

Advertisements
Track Severe Weather on mobile